createdAt,value
2017-05-05T00:00:13.013Z,33.88
2017-05-05T00:02:40.706Z,32.97
2017-05-05T00:05:08.363Z,35.03
2017-05-05T00:07:35.921Z,34.23
2017-05-05T00:10:03.467Z,34.33
2017-05-05T00:12:30.929Z,37.23
2017-05-05T00:14:59.192Z,37.43
2017-05-05T00:17:26.778Z,35.30
2017-05-05T00:19:54.314Z,37.30
2017-05-05T00:22:21.750Z,35.53
2017-05-05T00:24:49.317Z,33.90
2017-05-05T00:27:16.821Z,33.75
2017-05-05T00:29:44.425Z,36.05
2017-05-05T00:32:11.811Z,31.60
2017-05-05T00:34:39.445Z,33.55
2017-05-05T00:37:07.039Z,34.38
2017-05-05T00:39:34.569Z,32.82
2017-05-05T00:42:02.774Z,29.35
2017-05-05T00:44:30.405Z,32.57
2017-05-05T00:46:57.761Z,33.92
2017-05-05T00:49:25.297Z,31.15
2017-05-05T00:51:52.773Z,32.52
2017-05-05T00:54:20.468Z,30.68
2017-05-05T00:56:47.958Z,30.82
2017-05-05T00:59:15.461Z,30.15
2017-05-05T01:01:42.994Z,31.55
2017-05-05T01:04:10.570Z,33.37
2017-05-05T01:06:38.634Z,29.15
2017-05-05T01:09:06.226Z,31.02
2017-05-05T01:11:33.635Z,31.83
2017-05-05T01:14:01.018Z,32.13
2017-05-05T01:16:28.448Z,33.90
2017-05-05T01:18:56.047Z,32.48
2017-05-05T01:21:24.283Z,32.47
2017-05-05T01:23:51.647Z,30.15
2017-05-05T01:26:19.111Z,30.90
2017-05-05T01:28:46.767Z,30.60
2017-05-05T01:31:14.347Z,31.85
2017-05-05T01:33:42.490Z,34.20
2017-05-05T01:36:10.063Z,29.17
2017-05-05T01:38:37.515Z,32.03
2017-05-05T01:41:05.698Z,31.92
2017-05-05T01:43:33.139Z,29.80
2017-05-05T01:46:01.434Z,28.33
2017-05-05T01:48:28.979Z,29.13
2017-05-05T01:51:03.632Z,27.02
2017-05-05T01:53:31.158Z,26.13
2017-05-05T01:55:58.723Z,27.60
2017-05-05T01:58:26.689Z,28.77
2017-05-05T02:00:54.270Z,27.43
2017-05-05T02:03:21.785Z,27.93
2017-05-05T02:05:49.435Z,27.80
2017-05-05T02:08:16.854Z,27.53
2017-05-05T02:10:44.309Z,25.15
2017-05-05T02:13:11.813Z,26.10
2017-05-05T02:15:39.950Z,28.23
2017-05-05T02:18:07.545Z,27.37
2017-05-05T02:20:34.990Z,25.53
2017-05-05T02:23:02.321Z,24.30
2017-05-05T02:25:37.369Z,26.45
2017-05-05T02:28:04.859Z,24.53
2017-05-05T02:30:32.295Z,25.60
2017-05-05T02:32:59.875Z,24.80
2017-05-05T02:35:27.905Z,25.05
2017-05-05T02:37:55.405Z,25.85
2017-05-05T02:40:23.557Z,25.13
2017-05-05T02:42:51.007Z,27.48
2017-05-05T02:45:18.527Z,25.32
2017-05-05T02:47:46.025Z,26.28
2017-05-05T02:50:13.694Z,23.23
2017-05-05T02:52:41.233Z,22.07
2017-05-05T02:55:08.943Z,23.18
2017-05-05T02:57:36.463Z,22.97
2017-05-05T03:00:04.743Z,24.70
2017-05-05T03:02:32.298Z,23.70
2017-05-05T03:04:59.650Z,23.73
2017-05-05T03:07:27.946Z,23.93
2017-05-05T03:09:55.330Z,23.43
2017-05-05T03:12:22.847Z,22.28
2017-05-05T03:14:50.375Z,24.05
2017-05-05T03:17:17.959Z,25.63
2017-05-05T03:19:45.603Z,25.17
2017-05-05T03:22:13.307Z,24.45
2017-05-05T03:24:40.725Z,23.80
2017-05-05T03:27:08.303Z,23.45
2017-05-05T03:29:36.460Z,24.72
2017-05-05T03:32:04.033Z,23.87
2017-05-05T03:34:31.476Z,21.20
2017-05-05T03:36:59.691Z,20.72
2017-05-05T03:39:27.123Z,22.68
2017-05-05T03:41:54.539Z,22.88
2017-05-05T03:44:21.950Z,22.20
2017-05-05T03:46:50.200Z,22.62
2017-05-05T03:49:17.654Z,24.48
2017-05-05T03:51:45.803Z,22.25
2017-05-05T03:54:13.128Z,22.53
2017-05-05T03:56:40.454Z,23.82
2017-05-05T03:59:07.806Z,24.52
2017-05-05T04:01:36.094Z,23.53
2017-05-05T04:04:03.562Z,24.48
2017-05-05T04:06:30.817Z,23.87
2017-05-05T04:08:58.127Z,22.80
2017-05-05T04:11:25.694Z,24.07
2017-05-05T04:13:53.027Z,23.42
2017-05-05T04:16:20.434Z,20.68
2017-05-05T04:18:47.850Z,22.25
2017-05-05T04:21:15.271Z,22.97
2017-05-05T04:23:42.643Z,21.95
2017-05-05T04:26:09.917Z,22.18
2017-05-05T04:28:37.303Z,20.57
2017-05-05T04:31:04.670Z,22.88
2017-05-05T04:33:32.002Z,21.82
2017-05-05T04:36:00.072Z,20.85
2017-05-05T04:38:28.145Z,19.12
2017-05-05T04:40:56.206Z,18.82
2017-05-05T04:43:23.640Z,18.67
2017-05-05T04:45:51.050Z,19.50
2017-05-05T04:48:19.221Z,20.20
2017-05-05T04:50:46.567Z,19.95
2017-05-05T04:53:14.646Z,20.42
2017-05-05T04:55:41.904Z,19.57
2017-05-05T04:58:09.441Z,20.58
2017-05-05T05:00:37.518Z,22.23
2017-05-05T05:03:04.977Z,20.43
2017-05-05T05:05:32.290Z,20.47
2017-05-05T05:07:59.786Z,19.85
2017-05-05T05:10:27.181Z,19.02
2017-05-05T05:12:54.834Z,17.82
2017-05-05T05:15:22.409Z,18.98
2017-05-05T05:17:50.734Z,18.23
2017-05-05T05:20:18.228Z,16.75
2017-05-05T05:22:45.683Z,19.42
2017-05-05T05:25:13.365Z,20.20
2017-05-05T05:27:40.873Z,18.70
2017-05-05T05:30:08.230Z,19.93
2017-05-05T05:32:35.822Z,18.68
2017-05-05T05:35:03.167Z,18.20
2017-05-05T05:37:30.545Z,19.98
2017-05-05T05:39:57.917Z,19.17
2017-05-05T05:42:25.518Z,19.05
2017-05-05T05:44:53.090Z,17.73
2017-05-05T05:47:20.764Z,18.73
2017-05-05T05:49:48.308Z,18.02
2017-05-05T05:52:15.881Z,19.87
2017-05-05T05:54:43.301Z,18.00
2017-05-05T05:57:10.778Z,19.70
2017-05-05T05:59:38.162Z,19.08
2017-05-05T06:02:05.708Z,18.93
2017-05-05T06:04:33.298Z,18.97
2017-05-05T06:07:00.685Z,17.57
2017-05-05T06:09:28.185Z,16.00
2017-05-05T06:11:55.597Z,17.10
2017-05-05T06:14:22.870Z,15.03
2017-05-05T06:16:50.268Z,17.48
2017-05-05T06:19:17.833Z,16.52
2017-05-05T06:21:45.368Z,16.70
2017-05-05T06:24:12.789Z,16.57
2017-05-05T06:26:41.046Z,16.38
2017-05-05T06:29:08.626Z,15.27
2017-05-05T06:31:36.662Z,17.12
2017-05-05T06:34:04.230Z,17.32
2017-05-05T06:36:32.367Z,15.95
2017-05-05T06:39:00.079Z,17.57
2017-05-05T06:41:27.634Z,16.57
2017-05-05T06:43:55.199Z,16.35
2017-05-05T06:46:22.734Z,17.92
2017-05-05T06:48:50.417Z,15.70
2017-05-05T06:51:17.997Z,16.95
2017-05-05T06:53:45.434Z,17.42
2017-05-05T06:56:13.590Z,19.53
2017-05-05T06:58:41.321Z,17.55
2017-05-05T07:01:08.909Z,15.93
2017-05-05T07:03:36.601Z,14.77
2017-05-05T07:06:03.958Z,14.65
2017-05-05T07:08:31.506Z,15.55
2017-05-05T07:10:59.031Z,16.25
2017-05-05T07:13:27.374Z,16.68
2017-05-05T07:15:54.774Z,16.27
2017-05-05T07:18:22.309Z,17.17
2017-05-05T07:20:49.637Z,16.83
2017-05-05T07:23:17.079Z,17.45
2017-05-05T07:25:44.698Z,16.10
2017-05-05T07:28:12.246Z,16.47
2017-05-05T07:30:39.829Z,15.98
2017-05-05T07:33:08.385Z,18.68
2017-05-05T07:35:35.759Z,17.75
2017-05-05T07:38:03.305Z,18.28
2017-05-05T07:40:30.931Z,16.35
2017-05-05T07:42:58.321Z,15.87
2017-05-05T07:45:25.965Z,16.17
2017-05-05T07:47:53.549Z,15.35
2017-05-05T07:50:21.043Z,15.37
2017-05-05T07:52:48.597Z,15.48
2017-05-05T07:55:16.006Z,15.05
2017-05-05T07:57:44.299Z,15.58
2017-05-05T08:00:11.742Z,15.23
2017-05-05T08:02:39.814Z,15.37
2017-05-05T08:05:07.291Z,15.15
2017-05-05T08:07:34.857Z,14.03
2017-05-05T08:10:02.997Z,15.68
2017-05-05T08:12:30.577Z,15.08
2017-05-05T08:14:58.441Z,14.77
2017-05-05T08:17:25.953Z,14.73
2017-05-05T08:19:53.458Z,13.30
2017-05-05T08:22:21.049Z,15.17
2017-05-05T08:24:48.553Z,13.97
2017-05-05T08:27:16.142Z,13.93
2017-05-05T08:29:43.790Z,13.65
2017-05-05T08:32:11.253Z,15.33
2017-05-05T08:34:38.713Z,14.97
2017-05-05T08:37:06.137Z,15.80
2017-05-05T08:39:33.729Z,16.08
2017-05-05T08:42:01.349Z,16.00
2017-05-05T08:44:29.069Z,16.15
2017-05-05T08:46:56.677Z,14.72
2017-05-05T08:49:24.265Z,14.00
2017-05-05T08:51:51.785Z,16.60
2017-05-05T08:54:19.269Z,15.15
2017-05-05T08:56:46.706Z,14.05
2017-05-05T08:59:14.397Z,14.50
2017-05-05T09:01:41.931Z,15.02
2017-05-05T09:04:10.010Z,12.47
2017-05-05T09:06:37.525Z,14.32
2017-05-05T09:09:04.888Z,15.33
2017-05-05T09:11:32.252Z,13.93
2017-05-05T09:13:59.573Z,12.90
2017-05-05T09:16:26.966Z,14.85
2017-05-05T09:18:54.518Z,14.98
2017-05-05T09:21:22.098Z,15.43
2017-05-05T09:23:49.518Z,14.52
2017-05-05T09:26:17.129Z,14.48
2017-05-05T09:28:44.681Z,17.12
2017-05-05T09:31:12.337Z,16.05
2017-05-05T09:33:39.971Z,15.38
2017-05-05T09:36:07.545Z,16.82
2017-05-05T09:38:35.091Z,16.00
2017-05-05T09:41:03.348Z,17.50
2017-05-05T09:43:30.940Z,17.30
2017-05-05T09:45:58.539Z,16.87
2017-05-05T09:48:26.661Z,20.23
2017-05-05T09:50:54.223Z,19.17
2017-05-05T09:53:21.666Z,19.88
2017-05-05T09:55:49.857Z,19.27
2017-05-05T09:58:17.394Z,18.83
2017-05-05T10:00:44.977Z,20.28
2017-05-05T10:03:12.577Z,21.63
2017-05-05T10:05:40.586Z,20.78
2017-05-05T10:08:08.154Z,22.08
2017-05-05T10:10:35.818Z,25.97
2017-05-05T10:13:03.581Z,26.22
2017-05-05T10:15:31.150Z,25.43
2017-05-05T10:17:58.594Z,26.17
2017-05-05T10:20:26.273Z,27.50
2017-05-05T10:22:53.733Z,29.20
2017-05-05T10:25:21.249Z,31.07
2017-05-05T10:27:49.083Z,30.48
2017-05-05T10:30:16.589Z,30.18
2017-05-05T10:32:44.059Z,32.20
2017-05-05T10:35:11.625Z,30.57
2017-05-05T10:37:39.091Z,33.60
2017-05-05T10:40:06.700Z,31.93
2017-05-05T10:42:34.377Z,28.52
2017-05-05T10:45:02.021Z,23.13
2017-05-05T10:47:29.657Z,22.02
2017-05-05T10:49:57.346Z,22.08
2017-05-05T10:52:24.635Z,21.93
2017-05-05T10:54:51.952Z,19.47
2017-05-05T10:57:19.205Z,21.22
2017-05-05T10:59:46.790Z,21.40
2017-05-05T11:02:14.353Z,23.13
2017-05-05T11:04:41.940Z,22.57
2017-05-05T11:07:09.565Z,23.72
2017-05-05T11:09:37.236Z,25.42
2017-05-05T11:12:04.789Z,25.00
2017-05-05T11:14:32.922Z,26.90
2017-05-05T11:17:00.494Z,30.57
2017-05-05T11:19:27.941Z,30.63
2017-05-05T11:21:55.507Z,29.37
2017-05-05T11:24:23.084Z,26.07
2017-05-05T11:26:50.526Z,27.02
2017-05-05T11:29:18.084Z,28.18
2017-05-05T11:31:45.629Z,24.98
2017-05-05T11:34:13.209Z,25.53
2017-05-05T11:36:40.440Z,22.03
2017-05-05T11:39:07.916Z,20.37
2017-05-05T11:41:35.466Z,18.55
2017-05-05T11:44:02.832Z,17.83
2017-05-05T11:46:30.361Z,18.62
2017-05-05T11:48:57.821Z,19.80
2017-05-05T11:51:25.433Z,21.22
2017-05-05T11:53:52.957Z,17.90
2017-05-05T11:56:20.421Z,16.12
2017-05-05T11:58:48.665Z,15.13
2017-05-05T12:01:16.156Z,15.50
2017-05-05T12:03:43.591Z,16.48
2017-05-05T12:06:11.148Z,16.73
2017-05-05T12:08:38.599Z,19.60
2017-05-05T12:11:06.151Z,18.50
2017-05-05T12:13:33.690Z,18.48
2017-05-05T12:16:01.397Z,19.18
2017-05-05T12:18:29.040Z,18.37
2017-05-05T12:20:56.679Z,17.78
2017-05-05T12:23:24.224Z,17.42
2017-05-05T12:25:51.817Z,19.78
2017-05-05T12:28:19.481Z,18.95
2017-05-05T12:30:47.053Z,21.08
2017-05-05T12:33:14.494Z,20.72
2017-05-05T12:35:42.064Z,22.22
2017-05-05T12:38:09.629Z,30.08
2017-05-05T12:40:37.049Z,30.62
2017-05-05T12:43:04.602Z,31.03
2017-05-05T12:45:32.009Z,29.27
2017-05-05T12:47:59.687Z,28.72
2017-05-05T12:50:27.294Z,30.64
2017-05-05T12:52:54.956Z,31.95
2017-05-05T12:55:22.401Z,29.92
2017-05-05T12:57:50.076Z,29.52
2017-05-05T13:00:17.742Z,27.62
2017-05-05T13:02:45.435Z,29.37
2017-05-05T13:05:13.542Z,30.24
2017-05-05T13:07:41.146Z,28.92
2017-05-05T13:10:08.701Z,27.10
2017-05-05T13:12:36.128Z,26.15
2017-05-05T13:15:03.758Z,26.02
2017-05-05T13:17:32.834Z,24.66
2017-05-05T13:20:00.421Z,25.68
2017-05-05T13:22:27.882Z,25.70
2017-05-05T13:24:55.541Z,26.78
2017-05-05T13:27:23.133Z,26.60
2017-05-05T13:29:50.751Z,26.92
2017-05-05T13:32:18.386Z,25.74
2017-05-05T13:34:45.905Z,23.36
2017-05-05T13:37:13.477Z,23.48
2017-05-05T13:39:41.071Z,24.30
2017-05-05T13:42:08.676Z,23.37
2017-05-05T13:44:36.248Z,25.63
2017-05-05T13:47:18.747Z,24.48
2017-05-05T13:49:46.408Z,23.88
2017-05-05T13:52:14.071Z,24.78
2017-05-05T13:54:41.829Z,24.80
2017-05-05T13:57:09.365Z,27.18
2017-05-05T13:59:36.997Z,26.12
2017-05-05T14:02:04.437Z,23.92
2017-05-05T14:04:31.909Z,23.98
2017-05-05T14:06:59.301Z,24.35
2017-05-05T14:09:26.888Z,24.35
2017-05-05T14:11:54.578Z,23.68
2017-05-05T14:14:22.019Z,24.26
2017-05-05T14:16:49.526Z,21.48
2017-05-05T14:19:17.061Z,20.68
2017-05-05T14:21:44.410Z,19.92
2017-05-05T14:24:11.901Z,19.72
2017-05-05T14:26:39.337Z,19.57
2017-05-05T14:29:06.994Z,18.73
2017-05-05T14:31:34.713Z,19.02
2017-05-05T14:34:02.238Z,19.22
2017-05-05T14:36:29.698Z,17.72
2017-05-05T14:38:57.137Z,17.80
2017-05-05T14:41:24.614Z,17.68
2017-05-05T14:43:52.078Z,18.23
2017-05-05T14:46:19.755Z,19.53
2017-05-05T14:48:47.326Z,17.63
2017-05-05T14:51:14.938Z,17.85
2017-05-05T14:53:42.433Z,18.26
2017-05-05T14:56:09.903Z,18.33
2017-05-05T14:58:37.334Z,17.94
2017-05-05T15:01:04.546Z,18.52
2017-05-05T15:03:32.008Z,17.60
2017-05-05T15:05:59.669Z,18.58
2017-05-05T15:08:27.444Z,16.54
2017-05-05T15:10:54.980Z,16.38
2017-05-05T15:13:22.365Z,16.96
2017-05-05T15:15:49.660Z,17.52
2017-05-05T15:18:17.375Z,16.82
2017-05-05T15:20:45.026Z,16.40
2017-05-05T15:23:13.073Z,16.70
2017-05-05T15:25:40.902Z,16.72
2017-05-05T15:28:08.630Z,17.10
2017-05-05T15:30:36.006Z,18.82
2017-05-05T15:33:03.453Z,16.80
2017-05-05T15:35:30.895Z,15.66
2017-05-05T15:37:58.386Z,16.62
2017-05-05T15:40:25.977Z,15.86
2017-05-05T15:42:53.393Z,16.68
2017-05-05T15:45:20.877Z,15.38
2017-05-05T15:47:48.389Z,16.08
2017-05-05T15:50:15.906Z,13.74
2017-05-05T15:52:43.374Z,14.62
2017-05-05T15:55:10.949Z,16.48
2017-05-05T15:57:38.721Z,16.68
2017-05-05T16:00:06.314Z,17.00
2017-05-05T16:02:34.413Z,15.58
2017-05-05T16:05:01.967Z,16.46
2017-05-05T16:07:29.373Z,16.32
2017-05-05T16:09:56.917Z,16.32
2017-05-05T16:12:24.333Z,15.72
2017-05-05T16:14:51.978Z,13.82
2017-05-05T16:17:19.370Z,15.36
2017-05-05T16:19:46.722Z,15.46
2017-05-05T16:22:14.669Z,15.00
2017-05-05T16:24:42.361Z,16.52
2017-05-05T16:27:09.801Z,14.60
2017-05-05T16:29:37.601Z,15.78
2017-05-05T16:32:06.444Z,15.70
2017-05-05T16:34:34.902Z,16.20
2017-05-05T16:37:03.628Z,14.40
2017-05-05T16:39:31.757Z,15.12
2017-05-05T16:42:00.645Z,14.04
2017-05-05T16:44:28.939Z,14.30
2017-05-05T16:46:57.611Z,13.66
2017-05-05T16:49:25.469Z,14.02
2017-05-05T16:51:54.053Z,14.60
2017-05-05T16:54:21.603Z,14.02
2017-05-05T16:56:49.694Z,13.04
2017-05-05T16:59:18.167Z,14.48
2017-05-05T17:01:46.781Z,12.98
2017-05-05T17:04:15.944Z,13.36
2017-05-05T17:06:45.269Z,16.78
2017-05-05T17:09:13.827Z,15.12
2017-05-05T17:11:42.406Z,14.60
2017-05-05T17:14:10.369Z,14.10
2017-05-05T17:16:37.898Z,14.60
2017-05-05T17:19:05.312Z,15.08
2017-05-05T17:21:32.897Z,15.20
2017-05-05T17:24:00.433Z,15.38
2017-05-05T17:26:28.058Z,17.36
2017-05-05T17:28:56.024Z,15.28
2017-05-05T17:31:23.535Z,14.60
2017-05-05T17:33:51.190Z,16.56
2017-05-05T17:36:18.765Z,16.60
2017-05-05T17:38:46.389Z,16.92
2017-05-05T17:41:14.114Z,17.62
2017-05-05T17:43:41.613Z,18.08
2017-05-05T17:46:09.689Z,18.32
2017-05-05T17:48:37.361Z,18.38
2017-05-05T17:51:05.009Z,17.44
2017-05-05T17:53:32.631Z,17.68
2017-05-05T17:56:00.863Z,18.26
2017-05-05T17:58:28.425Z,17.34
2017-05-05T18:00:55.969Z,17.30
2017-05-05T18:03:23.424Z,17.72
2017-05-05T18:05:51.024Z,17.24
2017-05-05T18:08:18.439Z,17.84
2017-05-05T18:10:45.894Z,17.44
2017-05-05T18:13:13.517Z,16.78
2017-05-05T18:15:40.956Z,19.60
2017-05-05T18:18:09.065Z,20.28
2017-05-05T18:20:36.534Z,20.80
2017-05-05T18:23:04.090Z,17.00
2017-05-05T18:25:31.749Z,18.88
2017-05-05T18:27:59.393Z,18.85
2017-05-05T18:30:26.870Z,18.75
2017-05-05T18:32:54.333Z,18.77
2017-05-05T18:35:22.001Z,18.15
2017-05-05T18:37:49.646Z,18.26
2017-05-05T18:40:17.214Z,19.87
2017-05-05T18:42:44.682Z,17.13
2017-05-05T18:45:13.822Z,18.22
2017-05-05T18:47:41.746Z,17.30
2017-05-05T18:50:09.443Z,18.97
2017-05-05T18:52:37.497Z,17.10
2017-05-05T18:55:05.098Z,15.60
2017-05-05T18:57:32.692Z,17.65
2017-05-05T19:00:00.521Z,17.92
2017-05-05T19:02:27.898Z,18.92
2017-05-05T19:04:55.425Z,17.15
2017-05-05T19:07:22.794Z,17.48
2017-05-05T19:09:50.214Z,17.22
2017-05-05T19:12:18.369Z,17.83
2017-05-05T19:14:46.057Z,17.47
2017-05-05T19:17:13.557Z,17.93
2017-05-05T19:19:41.045Z,17.93
2017-05-05T19:22:08.598Z,17.47
2017-05-05T19:24:35.947Z,18.60
2017-05-05T19:27:03.381Z,18.10
2017-05-05T19:29:30.909Z,18.60
2017-05-05T19:31:58.499Z,18.75
2017-05-05T19:34:26.301Z,19.22
2017-05-05T19:36:53.805Z,18.68
2017-05-05T19:39:21.558Z,18.18
2017-05-05T19:41:49.134Z,18.08
2017-05-05T19:44:16.736Z,19.03
2017-05-05T19:46:44.198Z,20.93
2017-05-05T19:49:11.791Z,20.67
2017-05-05T19:51:39.518Z,21.83
2017-05-05T19:54:06.982Z,21.88
2017-05-05T19:56:34.497Z,22.55
2017-05-05T19:59:02.137Z,21.20
2017-05-05T20:01:36.145Z,21.83
2017-05-05T20:04:04.366Z,21.62
2017-05-05T20:06:31.922Z,22.52
2017-05-05T20:08:59.413Z,22.78
2017-05-05T20:11:26.877Z,22.23
2017-05-05T20:13:55.315Z,22.72
2017-05-05T20:16:22.774Z,23.95
2017-05-05T20:18:50.896Z,24.40
2017-05-05T20:21:18.521Z,23.22
2017-05-05T20:23:45.858Z,24.83
2017-05-05T20:26:13.369Z,24.82
2017-05-05T20:28:40.881Z,24.35
2017-05-05T20:31:08.278Z,24.17
2017-05-05T20:33:35.569Z,25.90
2017-05-05T20:36:03.126Z,25.62
2017-05-05T20:38:30.661Z,25.32
2017-05-05T20:40:58.089Z,24.55
2017-05-05T20:43:25.647Z,25.93
2017-05-05T20:45:53.215Z,25.58
2017-05-05T20:48:21.473Z,24.85
2017-05-05T20:50:48.727Z,26.58
2017-05-05T20:53:16.280Z,26.73
2017-05-05T20:55:43.871Z,25.35
2017-05-05T20:58:11.298Z,26.95
2017-05-05T21:00:38.903Z,28.67
2017-05-05T21:03:06.353Z,28.92
2017-05-05T21:05:33.922Z,30.25
2017-05-05T21:08:02.185Z,25.97
2017-05-05T21:10:29.741Z,27.18
2017-05-05T21:12:57.265Z,26.05
2017-05-05T21:15:24.634Z,29.07
2017-05-05T21:17:52.266Z,30.63
2017-05-05T21:20:19.843Z,30.83
2017-05-05T21:22:47.424Z,30.63
2017-05-05T21:25:14.927Z,30.77
2017-05-05T21:27:42.489Z,28.55
2017-05-05T21:30:10.001Z,32.08
2017-05-05T21:32:37.238Z,32.15
2017-05-05T21:35:04.873Z,33.02
2017-05-05T21:37:32.474Z,30.00
2017-05-05T21:40:01.077Z,30.90
2017-05-05T21:42:28.818Z,29.42
2017-05-05T21:44:56.190Z,28.27
2017-05-05T21:47:23.623Z,29.77
2017-05-05T21:49:51.103Z,31.07
2017-05-05T21:52:18.594Z,32.78
2017-05-05T21:54:46.305Z,32.22
2017-05-05T21:57:13.741Z,30.07
2017-05-05T21:59:41.130Z,32.63
2017-05-05T22:02:08.649Z,33.77
2017-05-05T22:04:36.090Z,29.70
2017-05-05T22:07:03.726Z,32.63
2017-05-05T22:09:31.153Z,32.23
2017-05-05T22:11:58.595Z,35.02
2017-05-05T22:14:26.127Z,33.33
2017-05-05T22:16:53.673Z,33.30
2017-05-05T22:19:21.271Z,35.67
2017-05-05T22:21:48.625Z,32.43
2017-05-05T22:24:16.217Z,31.43
2017-05-05T22:26:43.699Z,32.10
2017-05-05T22:29:11.280Z,30.28
2017-05-05T22:31:38.665Z,30.73
2017-05-05T22:34:05.912Z,31.45
2017-05-05T22:36:33.451Z,33.97
2017-05-05T22:39:00.923Z,34.23
2017-05-05T22:41:28.375Z,33.12
2017-05-05T22:43:55.821Z,31.97
2017-05-05T22:46:23.251Z,33.17
2017-05-05T22:48:50.810Z,31.75
2017-05-05T22:51:18.415Z,29.87
2017-05-05T22:53:45.929Z,31.73
2017-05-05T22:56:13.444Z,31.53
2017-05-05T22:58:40.932Z,32.00
2017-05-05T23:01:08.508Z,32.85
2017-05-05T23:03:36.140Z,32.22
2017-05-05T23:06:03.773Z,32.73
2017-05-05T23:08:31.179Z,30.50
2017-05-05T23:10:58.655Z,36.13
2017-05-05T23:13:26.067Z,34.63
2017-05-05T23:15:53.492Z,34.97
2017-05-05T23:18:20.874Z,31.48
2017-05-05T23:20:48.245Z,34.90
2017-05-05T23:23:15.835Z,34.35
2017-05-05T23:25:43.967Z,31.97
2017-05-05T23:28:11.431Z,33.23
2017-05-05T23:30:38.966Z,29.48
2017-05-05T23:33:06.423Z,30.77
2017-05-05T23:35:40.354Z,30.70
2017-05-05T23:38:08.048Z,27.47
2017-05-05T23:40:35.472Z,28.00
2017-05-05T23:43:02.907Z,27.55
2017-05-05T23:45:30.642Z,26.62
2017-05-05T23:47:58.092Z,28.32
2017-05-05T23:50:25.723Z,25.15
2017-05-05T23:52:53.174Z,26.38
2017-05-05T23:55:20.634Z,27.60
2017-05-05T23:57:48.263Z,26.62
